createdAt,value
2022-11-16T00:01:25.382Z,58.62
2022-11-16T00:04:27.246Z,58.46
2022-11-16T00:07:30.589Z,58.52
2022-11-16T00:10:32.760Z,58.67
2022-11-16T00:13:36.543Z,58.92
2022-11-16T00:16:39.335Z,59.18
2022-11-16T00:19:42.607Z,59.43
2022-11-16T00:22:45.124Z,59.60
2022-11-16T00:25:47.794Z,59.70
2022-11-16T00:28:51.565Z,59.73
2022-11-16T00:31:55.123Z,59.85
2022-11-16T00:34:57.624Z,59.93
2022-11-16T00:38:00.525Z,60.12
2022-11-16T00:41:02.517Z,60.18
2022-11-16T00:44:05.205Z,60.21
2022-11-16T00:47:07.355Z,60.30
2022-11-16T00:50:11.124Z,60.40
2022-11-16T00:53:15.486Z,60.47
2022-11-16T00:56:18.620Z,60.59
2022-11-16T00:59:21.349Z,60.62
2022-11-16T01:02:24.597Z,60.76
2022-11-16T01:05:26.785Z,60.78
2022-11-16T01:08:29.252Z,60.83
2022-11-16T01:11:50.092Z,60.87
2022-11-16T01:14:52.834Z,60.93
2022-11-16T01:17:56.345Z,61.01
2022-11-16T01:20:59.205Z,61.08
2022-11-16T01:24:01.673Z,61.10
2022-11-16T01:27:04.454Z,61.17
2022-11-16T01:30:12.767Z,61.25
2022-11-16T01:33:22.271Z,61.25
2022-11-16T01:36:25.230Z,61.45
2022-11-16T01:39:29.691Z,61.46
2022-11-16T01:42:36.404Z,61.61
2022-11-16T01:46:01.176Z,61.46
2022-11-16T01:49:11.426Z,61.67
2022-11-16T01:52:18.583Z,61.68
2022-11-16T01:55:22.977Z,61.73
2022-11-16T01:58:44.599Z,61.79
2022-11-16T02:01:52.546Z,61.84
2022-11-16T02:04:59.475Z,61.81
2022-11-16T02:08:47.523Z,61.90
2022-11-16T02:12:18.421Z,61.95
2022-11-16T02:15:35.223Z,62.04
2022-11-16T02:18:56.795Z,62.09
2022-11-16T02:22:26.473Z,62.07
2022-11-16T02:25:59.877Z,62.32
2022-11-16T02:29:20.304Z,62.50
2022-11-16T02:32:38.900Z,62.53
2022-11-16T02:35:47.776Z,62.66
2022-11-16T02:39:05.029Z,62.64
2022-11-16T02:42:15.975Z,62.60
2022-11-16T02:45:30.365Z,62.66
2022-11-16T02:48:43.962Z,62.66
2022-11-16T02:51:48.784Z,62.68
2022-11-16T02:54:50.921Z,62.71
2022-11-16T02:58:01.007Z,62.70
2022-11-16T03:01:15.259Z,62.78
2022-11-16T03:04:45.543Z,62.78
2022-11-16T03:08:14.344Z,62.81
2022-11-16T03:11:35.408Z,62.90
2022-11-16T03:14:43.242Z,62.87
2022-11-16T03:17:50.662Z,62.93
2022-11-16T03:21:01.885Z,62.98
2022-11-16T03:24:06.163Z,62.99
2022-11-16T03:27:14.298Z,63.04
2022-11-16T03:30:23.803Z,63.01
2022-11-16T03:33:44.427Z,63.12
2022-11-16T03:36:48.924Z,63.10
2022-11-16T03:39:54.762Z,63.16
2022-11-16T03:43:02.977Z,63.19
2022-11-16T03:46:06.456Z,63.23
2022-11-16T03:49:09.246Z,63.22
2022-11-16T03:52:16.102Z,63.29
2022-11-16T03:55:19.407Z,63.28
2022-11-16T03:58:22.166Z,63.31
2022-11-16T04:01:25.002Z,63.37
2022-11-16T04:04:47.466Z,63.36
2022-11-16T04:08:09.438Z,63.44
2022-11-16T04:11:32.992Z,63.45
2022-11-16T04:14:54.164Z,63.50
2022-11-16T04:18:16.966Z,63.51
2022-11-16T04:21:46.393Z,63.53
2022-11-16T04:24:53.089Z,63.53
2022-11-16T04:28:14.467Z,63.61
2022-11-16T04:31:40.227Z,63.61
2022-11-16T04:35:06.189Z,63.61
2022-11-16T04:38:08.372Z,63.60
2022-11-16T04:41:32.285Z,63.59
2022-11-16T04:44:55.172Z,63.64
2022-11-16T04:48:00.799Z,63.66
2022-11-16T04:51:06.733Z,63.75
2022-11-16T04:54:10.733Z,63.76
2022-11-16T04:57:13.875Z,63.78
2022-11-16T05:00:18.088Z,63.85
2022-11-16T05:03:20.209Z,63.84
2022-11-16T05:06:22.674Z,63.86
2022-11-16T05:09:25.095Z,63.87
2022-11-16T05:12:28.830Z,63.92
2022-11-16T05:15:35.300Z,63.88
2022-11-16T05:18:38.165Z,63.90
2022-11-16T05:21:40.827Z,63.94
2022-11-16T05:24:45.259Z,63.97
2022-11-16T05:27:47.394Z,63.97
2022-11-16T05:30:50.026Z,63.95
2022-11-16T05:33:57.870Z,63.91
2022-11-16T05:37:01.461Z,63.90
2022-11-16T05:40:06.218Z,63.92
2022-11-16T05:43:18.484Z,63.90
2022-11-16T05:46:35.500Z,63.87
2022-11-16T05:49:38.204Z,63.88
2022-11-16T05:52:40.614Z,63.90
2022-11-16T05:55:46.805Z,63.90
2022-11-16T05:58:50.230Z,63.91
2022-11-16T06:01:52.738Z,63.89
2022-11-16T06:04:54.812Z,63.93
2022-11-16T06:07:58.114Z,63.96
2022-11-16T06:11:05.176Z,63.97
2022-11-16T06:14:08.937Z,63.97
2022-11-16T06:17:15.154Z,64.05
2022-11-16T06:20:19.378Z,64.07
2022-11-16T06:23:22.532Z,64.09
2022-11-16T06:26:26.692Z,64.09
2022-11-16T06:29:28.811Z,64.12
2022-11-16T06:32:31.395Z,64.15
2022-11-16T06:35:33.638Z,64.17
2022-11-16T06:38:36.879Z,64.23
2022-11-16T06:41:41.587Z,64.23
2022-11-16T06:44:47.070Z,64.41
2022-11-16T06:47:53.387Z,64.36
2022-11-16T06:50:56.321Z,64.37
2022-11-16T06:53:58.487Z,64.36
2022-11-16T06:57:03.846Z,64.41
2022-11-16T07:00:08.037Z,64.36
2022-11-16T07:03:16.940Z,64.31
2022-11-16T07:06:21.314Z,64.33
2022-11-16T07:09:24.987Z,64.28
2022-11-16T07:12:27.696Z,64.33
2022-11-16T07:15:33.810Z,64.32
2022-11-16T07:18:39.750Z,64.45
2022-11-16T07:21:42.815Z,64.88
2022-11-16T07:24:50.195Z,64.65
2022-11-16T07:27:53.688Z,64.69
2022-11-16T07:31:05.727Z,64.73
2022-11-16T07:34:09.375Z,64.83
2022-11-16T07:37:37.775Z,64.62
2022-11-16T07:40:41.168Z,64.45
2022-11-16T07:43:47.236Z,64.55
2022-11-16T07:46:53.866Z,64.49
2022-11-16T07:49:56.071Z,64.88
2022-11-16T07:53:03.476Z,64.46
2022-11-16T07:56:06.876Z,65.03
2022-11-16T07:59:10.405Z,65.26
2022-11-16T08:02:16.905Z,65.15
2022-11-16T08:05:20.244Z,65.11
2022-11-16T08:08:24.988Z,64.88
2022-11-16T08:11:28.267Z,65.02
2022-11-16T08:14:31.126Z,64.85
2022-11-16T08:17:33.923Z,64.85
2022-11-16T08:20:38.005Z,64.61
2022-11-16T08:23:42.056Z,64.31
2022-11-16T08:26:44.563Z,63.95
2022-11-16T08:29:49.546Z,64.26
2022-11-16T08:32:51.866Z,64.01
2022-11-16T08:35:55.599Z,63.75
2022-11-16T08:38:58.159Z,63.55
2022-11-16T08:42:00.931Z,63.48
2022-11-16T08:45:03.240Z,63.05
2022-11-16T08:48:06.467Z,63.10
2022-11-16T08:51:19.182Z,62.95
2022-11-16T08:54:29.398Z,62.70
2022-11-16T08:57:32.098Z,62.57
2022-11-16T09:00:39.572Z,62.45
2022-11-16T09:03:42.375Z,62.32
2022-11-16T09:06:46.436Z,62.23
2022-11-16T09:09:48.552Z,61.95
2022-11-16T09:12:51.386Z,61.81
2022-11-16T09:15:58.112Z,61.61
2022-11-16T09:19:02.286Z,61.56
2022-11-16T09:22:04.584Z,61.65
2022-11-16T09:25:08.392Z,61.58
2022-11-16T09:28:11.742Z,61.63
2022-11-16T09:31:18.952Z,61.55
2022-11-16T09:34:25.714Z,61.54
2022-11-16T09:37:28.828Z,60.40
2022-11-16T09:40:41.026Z,62.13
2022-11-16T09:43:56.650Z,62.15
2022-11-16T09:47:00.680Z,61.89
2022-11-16T09:50:04.981Z,61.71
2022-11-16T09:53:15.234Z,61.51
2022-11-16T09:56:23.192Z,61.25
2022-11-16T09:59:30.279Z,61.04
2022-11-16T10:02:41.347Z,60.87
2022-11-16T10:06:05.953Z,60.76
2022-11-16T10:09:12.516Z,60.50
2022-11-16T10:12:34.888Z,60.34
2022-11-16T10:15:46.780Z,60.19
2022-11-16T10:19:10.098Z,60.26
2022-11-16T10:22:40.760Z,59.84
2022-11-16T10:25:45.539Z,59.70
2022-11-16T10:29:36.138Z,59.53
2022-11-16T10:33:06.710Z,59.51
2022-11-16T10:36:15.830Z,59.27
2022-11-16T10:39:20.987Z,59.06
2022-11-16T10:42:40.549Z,58.84
2022-11-16T10:46:00.466Z,58.69
2022-11-16T10:49:19.587Z,58.37
2022-11-16T10:52:22.297Z,58.92
2022-11-16T10:55:25.184Z,59.59
2022-11-16T10:58:27.901Z,59.63
2022-11-16T11:01:46.535Z,59.64
2022-11-16T11:05:23.064Z,59.50
2022-11-16T11:08:33.165Z,59.40
2022-11-16T11:11:54.377Z,59.46
2022-11-16T11:14:58.396Z,59.39
2022-11-16T11:18:23.940Z,59.62
2022-11-16T11:21:28.594Z,59.42
2022-11-16T11:24:44.566Z,59.40
2022-11-16T11:27:50.368Z,59.46
2022-11-16T11:31:04.551Z,59.41
2022-11-16T11:34:10.717Z,59.41
2022-11-16T11:37:25.579Z,59.44
2022-11-16T11:40:31.162Z,59.49
2022-11-16T11:43:35.434Z,59.54
2022-11-16T11:47:35.217Z,59.48
2022-11-16T11:50:12.529Z,59.56
2022-11-16T11:53:52.529Z,59.46
2022-11-16T11:56:55.314Z,59.47
2022-11-16T11:59:58.657Z,59.36
2022-11-16T12:03:16.857Z,59.19
2022-11-16T12:06:23.770Z,59.61
2022-11-16T12:09:58.473Z,59.25
2022-11-16T12:13:07.743Z,59.57
2022-11-16T12:16:25.533Z,59.75
2022-11-16T12:19:48.050Z,59.86
2022-11-16T12:23:01.127Z,59.93
2022-11-16T12:26:19.519Z,59.46
2022-11-16T12:29:35.769Z,59.33
2022-11-16T12:33:09.620Z,59.22
2022-11-16T12:36:23.375Z,59.07
2022-11-16T12:39:40.453Z,59.07
2022-11-16T12:42:50.223Z,59.06
2022-11-16T12:46:12.911Z,58.87
2022-11-16T12:49:36.790Z,58.66
2022-11-16T12:52:55.151Z,58.62
2022-11-16T12:56:19.982Z,58.45
2022-11-16T12:59:26.444Z,58.39
2022-11-16T13:02:50.886Z,58.19
2022-11-16T13:06:03.039Z,58.12
2022-11-16T13:09:26.581Z,58.00
2022-11-16T13:12:31.090Z,57.91
2022-11-16T13:15:40.746Z,57.83
2022-11-16T13:18:44.697Z,57.66
2022-11-16T13:22:07.513Z,57.80
2022-11-16T13:25:40.631Z,57.53
2022-11-16T13:28:52.529Z,57.71
2022-11-16T13:32:05.035Z,57.55
2022-11-16T13:35:14.775Z,57.46
2022-11-16T13:38:54.318Z,57.42
2022-11-16T13:42:11.667Z,56.98
2022-11-16T13:45:21.337Z,57.33
2022-11-16T13:48:45.977Z,57.40
2022-11-16T13:51:52.633Z,57.25
2022-11-16T13:54:56.422Z,56.89
2022-11-16T13:58:00.848Z,56.79
2022-11-16T14:01:08.436Z,56.66
2022-11-16T14:04:35.630Z,56.74
2022-11-16T14:07:47.508Z,56.38
2022-11-16T14:10:53.634Z,56.43
2022-11-16T14:13:55.892Z,56.28
2022-11-16T14:16:58.703Z,56.11
2022-11-16T14:20:01.188Z,56.15
2022-11-16T14:23:25.619Z,56.08
2022-11-16T14:26:46.863Z,56.06
2022-11-16T14:30:10.091Z,55.93
2022-11-16T14:33:24.153Z,55.84
2022-11-16T14:36:35.908Z,55.84
2022-11-16T14:39:41.394Z,55.94
2022-11-16T14:46:23.496Z,55.82
2022-11-16T14:49:27.802Z,55.80
2022-11-16T14:52:40.381Z,55.84
2022-11-16T14:55:45.687Z,56.42
2022-11-16T14:58:58.015Z,56.56
2022-11-16T15:02:14.950Z,56.73
2022-11-16T15:05:19.841Z,56.62
2022-11-16T15:08:30.707Z,56.61
2022-11-16T15:12:12.399Z,56.80
2022-11-16T15:15:18.313Z,56.88
2022-11-16T15:18:23.448Z,56.98
2022-11-16T15:21:26.698Z,57.04
2022-11-16T15:24:34.083Z,57.10
2022-11-16T15:27:40.788Z,57.18
2022-11-16T15:30:46.691Z,57.28
2022-11-16T15:33:51.037Z,57.32
2022-11-16T15:36:53.455Z,57.45
2022-11-16T15:39:58.669Z,57.55
2022-11-16T15:43:03.867Z,57.60
2022-11-16T15:46:08.633Z,57.65
2022-11-16T15:49:36.223Z,57.63
2022-11-16T15:52:45.865Z,57.76
2022-11-16T15:55:50.168Z,57.73
2022-11-16T15:58:58.148Z,57.76
2022-11-16T16:02:00.607Z,57.73
2022-11-16T16:05:03.438Z,57.76
2022-11-16T16:08:07.165Z,57.85
2022-11-16T16:11:16.904Z,57.82
2022-11-16T16:14:30.092Z,57.86
2022-11-16T16:17:32.910Z,57.83
2022-11-16T16:20:36.636Z,57.91
2022-11-16T16:23:49.872Z,57.98
2022-11-16T16:26:53.045Z,58.07
2022-11-16T16:30:05.324Z,57.91
2022-11-16T16:33:21.649Z,58.09
2022-11-16T16:36:24.639Z,57.93
2022-11-16T16:39:27.940Z,57.69
2022-11-16T16:42:31.545Z,57.78
2022-11-16T16:45:48.608Z,57.91
2022-11-16T16:48:51.250Z,57.78
2022-11-16T16:52:02.256Z,57.60
2022-11-16T16:55:08.265Z,57.50
2022-11-16T16:58:12.640Z,57.50
2022-11-16T17:01:17.886Z,57.58
2022-11-16T17:04:20.223Z,57.29
2022-11-16T17:07:23.799Z,57.26
2022-11-16T17:10:26.379Z,57.32
2022-11-16T17:13:29.111Z,57.32
2022-11-16T17:16:37.944Z,57.42
2022-11-16T17:19:40.792Z,57.49
2022-11-16T17:22:44.142Z,57.53
2022-11-16T17:25:47.056Z,57.82
2022-11-16T17:28:49.176Z,57.77
2022-11-16T17:31:52.024Z,58.41
2022-11-16T17:34:54.206Z,58.16
2022-11-16T17:37:59.551Z,58.13
2022-11-16T17:41:41.016Z,58.18
2022-11-16T17:44:43.734Z,58.22
2022-11-16T17:47:46.552Z,58.27
2022-11-16T17:50:49.426Z,58.33
2022-11-16T17:53:52.546Z,58.39
2022-11-16T17:56:55.469Z,58.57
2022-11-16T17:59:57.804Z,58.64
2022-11-16T18:03:01.576Z,58.72
2022-11-16T18:06:05.462Z,58.76
2022-11-16T18:09:08.369Z,58.78
2022-11-16T18:12:10.504Z,58.90
2022-11-16T18:15:28.027Z,58.96
2022-11-16T18:18:32.182Z,59.00
2022-11-16T18:21:41.712Z,59.08
2022-11-16T18:24:43.895Z,59.10
2022-11-16T18:27:51.257Z,59.15
2022-11-16T18:31:04.904Z,59.06
2022-11-16T18:34:07.535Z,59.20
2022-11-16T18:37:09.864Z,59.13
2022-11-16T18:40:13.208Z,59.21
2022-11-16T18:43:15.592Z,59.37
2022-11-16T18:46:24.087Z,59.42
2022-11-16T18:49:26.126Z,59.48
2022-11-16T18:52:28.926Z,59.45
2022-11-16T18:55:32.146Z,59.43
2022-11-16T18:58:51.852Z,59.46
2022-11-16T19:01:54.195Z,59.48
2022-11-16T19:04:56.797Z,59.47
2022-11-16T19:07:59.133Z,59.47
2022-11-16T19:11:13.243Z,59.48
2022-11-16T19:14:15.287Z,59.53
2022-11-16T19:17:19.612Z,59.54
2022-11-16T19:20:22.403Z,59.94
2022-11-16T19:23:25.087Z,59.86
2022-11-16T19:26:32.721Z,59.77
2022-11-16T19:29:49.397Z,59.80
2022-11-16T19:33:17.756Z,59.77
2022-11-16T19:36:20.873Z,59.74
2022-11-16T19:39:22.949Z,59.76
2022-11-16T19:45:51.375Z,59.74
2022-11-16T19:48:56.915Z,59.75
2022-11-16T19:52:02.157Z,59.75
2022-11-16T19:55:04.928Z,59.84
2022-11-16T19:58:07.204Z,59.79
2022-11-16T20:01:15.601Z,59.90
2022-11-16T20:04:17.788Z,59.93
2022-11-16T20:07:21.439Z,59.89
2022-11-16T20:10:23.728Z,59.88
2022-11-16T20:13:26.289Z,60.62
2022-11-16T20:16:37.032Z,60.60
2022-11-16T20:19:41.062Z,59.92
2022-11-16T20:22:44.337Z,60.09
2022-11-16T20:25:47.061Z,59.95
2022-11-16T20:28:55.562Z,59.65
2022-11-16T20:31:58.071Z,59.46
2022-11-16T20:35:00.167Z,59.39
2022-11-16T20:38:02.473Z,59.46
2022-11-16T20:41:13.381Z,59.19
2022-11-16T20:44:19.793Z,58.87
2022-11-16T20:47:21.870Z,59.13
2022-11-16T20:50:24.519Z,59.19
2022-11-16T20:53:26.880Z,59.11
2022-11-16T20:56:29.839Z,59.18
2022-11-16T20:59:32.240Z,59.14
2022-11-16T21:02:35.001Z,59.13
2022-11-16T21:05:46.488Z,59.10
2022-11-16T21:08:49.105Z,59.13
2022-11-16T21:12:10.205Z,59.20
2022-11-16T21:15:13.022Z,59.10
2022-11-16T21:18:16.538Z,59.14
2022-11-16T21:21:18.985Z,59.30
2022-11-16T21:24:24.848Z,59.19
2022-11-16T21:27:27.950Z,59.55
2022-11-16T21:30:30.041Z,59.35
2022-11-16T21:33:33.238Z,59.32
2022-11-16T21:36:36.676Z,59.54
2022-11-16T21:39:39.125Z,59.38
2022-11-16T21:42:41.143Z,58.99
2022-11-16T21:45:45.336Z,58.83
2022-11-16T21:48:48.274Z,58.96
2022-11-16T21:51:50.658Z,58.85
2022-11-16T21:55:00.114Z,58.02
2022-11-16T21:58:06.349Z,58.57
2022-11-16T22:01:10.999Z,58.38
2022-11-16T22:04:31.840Z,58.57
2022-11-16T22:07:33.971Z,58.50
2022-11-16T22:10:36.310Z,58.58
2022-11-16T22:13:39.243Z,58.28
2022-11-16T22:16:42.417Z,58.21
2022-11-16T22:19:44.403Z,58.01
2022-11-16T22:22:46.940Z,57.52
2022-11-16T22:25:49.068Z,57.93
2022-11-16T22:28:53.578Z,57.59
2022-11-16T22:31:55.737Z,57.64
2022-11-16T22:34:58.529Z,57.37
2022-11-16T22:38:03.268Z,57.49
2022-11-16T22:41:06.509Z,57.33
2022-11-16T22:44:08.690Z,57.20
2022-11-16T22:47:11.198Z,57.74
2022-11-16T22:50:15.841Z,57.39
2022-11-16T22:53:18.270Z,57.09
2022-11-16T22:56:24.246Z,56.87
2022-11-16T22:59:26.391Z,56.74
2022-11-16T23:02:28.527Z,56.78
2022-11-16T23:05:30.976Z,56.75
2022-11-16T23:08:34.268Z,56.57
2022-11-16T23:11:55.384Z,56.69
2022-11-16T23:15:18.748Z,56.87
2022-11-16T23:18:21.361Z,56.92
2022-11-16T23:21:42.145Z,56.93
2022-11-16T23:25:04.570Z,56.79
2022-11-16T23:28:12.828Z,56.13
2022-11-16T23:31:15.169Z,56.78
2022-11-16T23:34:17.011Z,56.68
2022-11-16T23:37:19.668Z,56.75
2022-11-16T23:40:24.768Z,56.61
2022-11-16T23:43:46.004Z,56.43
2022-11-16T23:46:47.957Z,56.63
2022-11-16T23:49:51.267Z,56.40
2022-11-16T23:52:53.339Z,56.00
2022-11-16T23:56:05.782Z,56.36
2022-11-16T23:59:08.288Z,56.70
